createdAt,value
2022-08-29T06:04:23.654Z,17.90
2022-08-29T06:09:17.449Z,17.90
2022-08-29T06:37:52.062Z,18.40
2022-08-29T06:42:45.703Z,18.60
2022-08-29T06:47:39.219Z,18.70
2022-08-29T06:52:32.990Z,18.80
2022-08-29T06:57:30.658Z,18.90
2022-08-29T07:02:24.276Z,19.10
2022-08-29T07:07:17.750Z,19.40
2022-08-29T07:12:11.330Z,19.80
2022-08-29T07:17:07.415Z,19.90
2022-08-29T07:22:01.000Z,20.20
2022-08-29T07:26:54.522Z,20.40
2022-08-29T07:31:52.373Z,20.50
2022-08-29T07:36:47.774Z,20.70
2022-08-29T07:41:43.751Z,20.80
2022-08-29T07:46:37.942Z,21.00
2022-08-29T07:51:31.944Z,21.40
2022-08-29T07:56:28.803Z,21.70
2022-08-29T08:01:24.932Z,22.00
2022-08-29T08:06:19.617Z,22.20
2022-08-29T08:11:18.157Z,22.50
2022-08-29T08:16:15.854Z,22.80
2022-08-29T08:21:10.098Z,22.90
2022-08-29T08:26:03.849Z,23.10
2022-08-29T08:31:00.244Z,23.40
2022-08-29T08:35:58.798Z,23.50
2022-08-29T08:41:05.910Z,23.70
2022-08-29T08:45:59.493Z,23.90
2022-08-29T08:50:58.382Z,24.20
2022-08-29T08:55:55.915Z,24.30
2022-08-29T09:00:57.338Z,24.30
2022-08-29T09:06:03.638Z,24.40
2022-08-29T09:11:03.372Z,24.50
2022-08-29T09:16:00.928Z,24.70
2022-08-29T09:20:54.833Z,24.90
2022-08-29T09:25:49.073Z,25.00
2022-08-29T09:30:46.765Z,25.30
2022-08-29T09:35:43.344Z,25.50
2022-08-29T09:40:48.908Z,25.80
2022-08-29T09:46:09.470Z,26.10
2022-08-29T09:51:20.746Z,26.50
2022-08-29T09:56:22.932Z,26.80
2022-08-29T10:01:22.709Z,26.80
2022-08-29T10:06:24.110Z,27.20
2022-08-29T10:11:23.418Z,27.40
2022-08-29T10:16:28.658Z,27.30
2022-08-29T10:21:36.182Z,27.30
2022-08-29T10:26:40.840Z,27.90
2022-08-29T10:31:40.072Z,28.60
2022-08-29T10:36:37.067Z,28.60
2022-08-29T10:41:35.244Z,28.70
2022-08-29T10:46:54.277Z,29.10
2022-08-29T10:51:59.567Z,29.00
2022-08-29T10:56:53.904Z,28.90
2022-08-29T11:01:55.466Z,29.40
2022-08-29T11:06:58.958Z,29.30
2022-08-29T11:12:06.217Z,29.10
2022-08-29T11:17:04.444Z,28.80
2022-08-29T11:22:03.444Z,28.30
2022-08-29T11:27:04.554Z,27.90
2022-08-29T11:32:08.822Z,27.20
2022-08-29T11:37:31.642Z,26.80
2022-08-29T11:48:03.399Z,26.70
2022-08-29T11:53:00.526Z,26.70
2022-08-29T11:58:04.233Z,26.60
2022-08-29T12:03:07.291Z,26.50
2022-08-29T12:08:36.023Z,26.10
2022-08-29T12:14:05.418Z,25.90
2022-08-29T12:19:01.257Z,25.90
2022-08-29T12:23:56.010Z,26.10
2022-08-29T12:28:59.858Z,25.90
2022-08-29T12:34:19.239Z,25.90
2022-08-29T12:39:46.070Z,26.00
2022-08-29T12:44:42.717Z,26.20
2022-08-29T12:49:48.564Z,26.10
2022-08-29T12:54:45.882Z,26.20
2022-08-29T12:59:47.950Z,26.40
2022-08-29T13:04:45.254Z,26.40
2022-08-29T13:09:42.125Z,26.60
2022-08-29T13:14:47.099Z,26.60
2022-08-29T13:19:41.219Z,27.10
2022-08-29T13:24:36.232Z,27.80
2022-08-29T13:34:29.139Z,28.20
2022-08-29T13:39:28.301Z,28.20
2022-08-29T13:44:27.459Z,28.30
2022-08-29T13:49:23.287Z,28.30
2022-08-29T13:54:17.100Z,28.20
2022-08-29T13:59:11.917Z,28.10
2022-08-29T14:04:36.407Z,28.00
2022-08-29T14:09:28.607Z,28.10
2022-08-29T14:14:22.518Z,28.10
2022-08-29T14:19:17.880Z,28.10
2022-08-29T14:24:11.507Z,28.00
2022-08-29T14:29:05.449Z,27.90
2022-08-29T14:33:59.309Z,27.90
2022-08-29T14:38:56.237Z,27.80
2022-08-29T14:43:50.373Z,27.70
2022-08-29T14:48:44.305Z,27.60
2022-08-29T14:53:44.842Z,27.50
2022-08-29T14:58:49.748Z,27.50
2022-08-29T15:03:43.539Z,27.50
2022-08-29T15:08:37.593Z,27.70
2022-08-29T15:13:31.631Z,28.90
2022-08-29T15:19:09.466Z,29.90
2022-08-29T15:23:41.301Z,30.50
2022-08-29T15:28:36.870Z,30.90
2022-08-29T15:33:32.661Z,31.10
2022-08-29T15:38:26.464Z,31.50
2022-08-29T15:43:20.447Z,32.10
2022-08-29T15:48:14.567Z,33.80
2022-08-29T15:53:11.037Z,35.50
2022-08-29T15:58:05.582Z,36.60
2022-08-29T16:03:00.433Z,38.40
2022-08-29T16:07:54.450Z,39.50
2022-08-29T16:12:49.902Z,39.40
2022-08-29T16:17:43.606Z,36.10
2022-08-29T16:22:37.188Z,34.70
2022-08-29T16:27:30.666Z,36.70
2022-08-29T16:32:26.080Z,37.90
2022-08-29T16:37:19.917Z,36.40
2022-08-29T16:42:13.422Z,32.30
2022-08-29T16:47:07.618Z,30.60
2022-08-29T16:52:03.869Z,29.80
2022-08-29T16:56:58.394Z,28.40
2022-08-29T17:01:53.875Z,27.60
2022-08-29T17:06:48.204Z,27.00
2022-08-29T17:11:42.981Z,26.70
2022-08-29T17:16:37.135Z,26.40
2022-08-29T17:21:32.031Z,26.00
2022-08-29T17:26:26.386Z,25.70
2022-08-29T17:31:21.437Z,25.40
2022-08-29T17:36:16.382Z,25.10
2022-08-29T17:41:15.414Z,24.80
2022-08-29T17:46:11.142Z,24.70
2022-08-29T17:51:06.295Z,24.60
2022-08-29T17:56:00.867Z,24.50
2022-08-29T18:00:54.796Z,24.40
2022-08-29T18:05:48.796Z,24.30
2022-08-29T18:10:44.041Z,24.00
2022-08-29T18:15:41.950Z,23.90
2022-08-29T18:20:37.638Z,23.80
2022-08-29T18:31:00.869Z,23.70
2022-08-29T18:35:54.958Z,23.60
2022-08-29T18:40:53.830Z,23.50
2022-08-29T18:45:50.044Z,23.20
2022-08-29T18:50:44.258Z,23.00
2022-08-29T18:55:37.860Z,22.80
2022-08-29T19:00:32.497Z,22.70
2022-08-29T19:05:30.199Z,22.60
2022-08-29T19:10:26.254Z,22.40
2022-08-29T19:15:22.581Z,22.20
2022-08-29T19:20:37.513Z,21.90
2022-08-29T19:25:33.168Z,21.80
2022-08-29T19:30:28.573Z,21.80
2022-08-29T19:35:22.579Z,21.70
2022-08-29T19:40:17.731Z,21.70
2022-08-29T19:45:14.635Z,21.60
2022-08-29T19:50:12.017Z,21.60
2022-08-29T19:55:06.490Z,21.50
2022-08-29T20:00:00.456Z,21.40
2022-08-29T20:04:55.918Z,21.30
2022-08-29T20:09:49.997Z,21.30
2022-08-29T20:14:43.729Z,21.30
2022-08-29T20:19:39.312Z,21.20
2022-08-29T20:24:34.379Z,21.10
2022-08-29T20:29:28.218Z,21.10
2022-08-29T20:34:25.757Z,21.10
2022-08-29T20:39:21.330Z,21.10
2022-08-29T20:44:18.577Z,21.00
